createdAt,value
2018-05-07T00:04:16.458Z,14.80
2018-05-07T00:09:19.665Z,14.70
2018-05-07T00:14:22.830Z,14.70
2018-05-07T00:29:35.935Z,14.40
2018-05-07T00:34:39.088Z,14.20
2018-05-07T00:39:43.018Z,14.20
2018-05-07T00:44:46.201Z,14.10
2018-05-07T00:49:50.116Z,14.00
2018-05-07T00:55:10.967Z,13.90
2018-05-07T01:00:14.162Z,13.80
2018-05-07T01:05:18.138Z,13.90
2018-05-07T01:10:22.091Z,14.00
2018-05-07T01:15:26.012Z,13.90
2018-05-07T01:20:30.626Z,13.80
2018-05-07T01:25:33.789Z,13.70
2018-05-07T01:30:37.740Z,13.60
2018-05-07T01:35:40.873Z,13.60
2018-05-07T01:40:44.011Z,13.50
2018-05-07T01:45:47.868Z,13.40
2018-05-07T01:50:52.457Z,13.30
2018-05-07T01:55:55.948Z,13.20
2018-05-07T02:00:59.046Z,13.00
2018-05-07T02:06:02.132Z,12.90
2018-05-07T02:11:05.988Z,13.10
2018-05-07T02:16:09.069Z,13.00
2018-05-07T02:26:16.594Z,12.80
2018-05-07T02:31:20.172Z,12.70
2018-05-07T02:36:24.310Z,12.60
2018-05-07T02:41:28.160Z,12.50
2018-05-07T02:46:32.005Z,12.50
2018-05-07T02:51:35.097Z,12.40
2018-05-07T02:56:38.185Z,12.30
2018-05-07T03:01:42.046Z,12.30
2018-05-07T03:06:45.163Z,12.20
2018-05-07T03:11:48.989Z,12.00
2018-05-07T03:16:52.088Z,12.00
2018-05-07T03:21:55.175Z,12.00
2018-05-07T03:26:59.030Z,11.80
2018-05-07T03:32:02.113Z,11.70
2018-05-07T03:37:05.214Z,11.70
2018-05-07T03:42:09.067Z,11.70
2018-05-07T03:47:12.978Z,11.60
2018-05-07T03:52:16.073Z,11.60
2018-05-07T03:57:21.571Z,11.50
2018-05-07T04:02:25.421Z,11.50
2018-05-07T04:07:28.516Z,11.30
2018-05-07T04:12:31.605Z,11.30
2018-05-07T04:17:53.181Z,11.20
2018-05-07T04:23:14.570Z,11.30
2018-05-07T04:28:17.660Z,11.40
2018-05-07T04:33:21.568Z,11.40
2018-05-07T04:38:25.055Z,11.40
2018-05-07T04:43:28.898Z,11.50
2018-05-07T04:53:36.427Z,11.70
2018-05-07T04:58:40.292Z,11.60
2018-05-07T05:03:44.147Z,11.70
2018-05-07T05:08:48.387Z,11.80
2018-05-07T05:13:52.983Z,12.20
2018-05-07T05:18:56.079Z,12.60
2018-05-07T05:23:59.555Z,13.10
2018-05-07T05:29:03.405Z,13.90
2018-05-07T05:34:06.886Z,14.80
2018-05-07T05:39:09.972Z,15.40
2018-05-07T05:49:17.877Z,17.00
2018-05-07T05:54:20.969Z,17.50
2018-05-07T05:59:25.194Z,17.60
2018-05-07T06:04:28.287Z,18.00
2018-05-07T06:14:36.619Z,18.90
2018-05-07T06:24:44.475Z,19.20
2018-05-07T06:29:49.077Z,19.60
2018-05-07T06:34:53.309Z,19.30
2018-05-07T06:39:57.157Z,19.20
2018-05-07T06:45:00.256Z,19.60
2018-05-07T06:50:03.349Z,20.50
2018-05-07T06:55:06.433Z,21.30
2018-05-07T07:00:09.528Z,21.20
2018-05-07T07:05:13.763Z,21.30
2018-05-07T07:15:22.807Z,20.30
2018-05-07T07:20:25.907Z,20.90
2018-05-07T07:25:28.999Z,21.40
2018-05-07T07:30:32.099Z,22.30
2018-05-07T07:35:35.191Z,23.20
2018-05-07T07:45:42.719Z,22.70
2018-05-07T07:50:47.317Z,22.60
2018-05-07T08:00:54.847Z,23.40
2018-05-07T08:05:59.451Z,24.60
2018-05-07T08:11:03.306Z,23.10
2018-05-07T08:16:07.542Z,23.70
2018-05-07T08:21:10.637Z,23.50
2018-05-07T08:26:14.491Z,24.10
2018-05-07T08:31:17.570Z,25.20
2018-05-07T08:36:21.066Z,24.40
2018-05-07T08:41:24.922Z,24.30
2018-05-07T08:46:28.028Z,24.60
2018-05-07T08:51:31.882Z,24.40
2018-05-07T08:56:34.977Z,25.20
2018-05-07T09:01:38.859Z,25.00
2018-05-07T09:06:42.719Z,25.60
2018-05-07T09:11:46.950Z,25.90
2018-05-07T09:16:50.042Z,24.90
2018-05-07T09:21:53.142Z,24.80
2018-05-07T09:26:57.383Z,24.50
2018-05-07T09:32:00.487Z,24.50
2018-05-07T09:42:09.539Z,26.10
2018-05-07T09:47:12.635Z,26.50
2018-05-07T09:52:15.721Z,26.50
2018-05-07T09:57:18.806Z,26.70
2018-05-07T10:02:21.974Z,25.50
2018-05-07T10:17:34.291Z,25.20
2018-05-07T10:22:38.243Z,24.40
2018-05-07T10:27:43.595Z,24.50
2018-05-07T10:32:47.466Z,24.50
2018-05-07T10:37:50.559Z,24.40
2018-05-07T10:42:55.181Z,24.50
2018-05-07T10:47:59.342Z,24.30
2018-05-07T10:53:03.931Z,24.20
2018-05-07T10:58:08.154Z,24.40
2018-05-07T11:08:16.464Z,24.90
2018-05-07T11:13:19.937Z,25.20
2018-05-07T11:23:28.243Z,24.90
2018-05-07T11:28:31.720Z,24.80
2018-05-07T11:33:35.207Z,25.10
2018-05-07T11:38:39.058Z,25.40
2018-05-07T11:43:43.274Z,25.40
2018-05-07T11:48:46.367Z,25.20
2018-05-07T11:53:50.223Z,25.00
2018-05-07T11:58:54.445Z,24.90
2018-05-07T12:03:57.547Z,25.00
2018-05-07T12:09:00.654Z,24.80
2018-05-07T12:14:04.484Z,25.10
2018-05-07T12:29:16.915Z,25.60
2018-05-07T12:34:21.780Z,25.70
2018-05-07T12:44:30.063Z,25.30
2018-05-07T12:49:33.134Z,25.10
2018-05-07T12:54:37.350Z,25.10
2018-05-07T12:59:40.829Z,25.30
2018-05-07T13:04:43.904Z,25.10
2018-05-07T13:09:48.481Z,25.20
2018-05-07T13:14:52.322Z,25.20
2018-05-07T13:19:55.406Z,25.40
2018-05-07T13:24:58.485Z,25.70
2018-05-07T13:30:01.588Z,25.80
2018-05-07T13:35:05.816Z,25.90
2018-05-07T13:50:18.149Z,25.70
2018-05-07T13:55:21.231Z,25.90
2018-05-07T14:00:25.079Z,25.80
2018-05-07T14:05:29.298Z,26.00
2018-05-07T14:20:42.734Z,25.90
2018-05-07T14:25:45.807Z,26.00
2018-05-07T14:30:49.655Z,26.00
2018-05-07T14:35:52.748Z,25.90
2018-05-07T14:40:56.610Z,26.00
2018-05-07T14:45:59.702Z,25.90
2018-05-07T14:51:03.565Z,26.00
2018-05-07T14:56:06.663Z,25.80
2018-05-07T15:11:19.796Z,26.00
2018-05-07T15:36:41.092Z,26.10
2018-05-07T15:41:44.191Z,26.10
2018-05-07T16:07:06.237Z,26.00
2018-05-07T16:17:14.201Z,26.00
2018-05-07T16:22:17.342Z,25.90
2018-05-07T16:32:25.229Z,25.80
2018-05-07T16:47:38.363Z,25.80
2018-05-07T16:52:41.467Z,25.90
2018-05-07T17:02:50.517Z,25.90
2018-05-07T17:07:54.746Z,25.90
2018-05-07T17:12:59.804Z,25.80
2018-05-07T17:23:08.865Z,25.70
2018-05-07T17:28:11.967Z,25.70
2018-05-07T17:33:15.871Z,25.60
2018-05-07T17:43:24.586Z,25.30
2018-05-07T17:48:45.495Z,25.10
2018-05-07T17:53:48.593Z,24.90
2018-05-07T17:58:51.688Z,24.90
2018-05-07T18:03:54.795Z,24.70
2018-05-07T18:08:57.887Z,24.60
2018-05-07T18:29:15.874Z,23.90
2018-05-07T18:34:18.964Z,23.80
2018-05-07T18:39:22.056Z,23.60
2018-05-07T18:44:25.921Z,23.40
2018-05-07T18:49:29.028Z,23.30
2018-05-07T18:54:32.122Z,23.10
2018-05-07T18:59:35.224Z,22.80
2018-05-07T19:04:38.328Z,22.60
2018-05-07T19:24:54.754Z,21.70
2018-05-07T19:29:58.695Z,21.50
2018-05-07T19:35:01.735Z,21.20
2018-05-07T19:40:05.668Z,21.00
2018-05-07T19:45:08.709Z,20.70
2018-05-07T19:50:11.823Z,20.50
2018-05-07T19:55:14.927Z,20.30
2018-05-07T20:05:23.267Z,20.00
2018-05-07T20:20:35.516Z,19.60
2018-05-07T20:25:39.397Z,19.70
2018-05-07T20:30:42.512Z,19.80
2018-05-07T20:35:45.610Z,19.90
2018-05-07T20:40:48.743Z,20.00
2018-05-07T20:45:52.969Z,19.90
2018-05-07T20:50:56.067Z,19.80
2018-05-07T20:55:59.988Z,19.70
2018-05-07T21:06:07.551Z,19.50
2018-05-07T21:16:15.514Z,19.50
2018-05-07T21:21:19.388Z,19.20
2018-05-07T21:26:22.505Z,19.00
2018-05-07T21:31:26.747Z,18.80
2018-05-07T21:36:31.611Z,18.60
2018-05-07T21:46:39.563Z,18.50
2018-05-07T22:01:51.583Z,18.60
2018-05-07T22:06:54.692Z,18.40
2018-05-07T22:11:58.561Z,18.30
2018-05-07T22:17:03.420Z,18.10
2018-05-07T22:27:12.117Z,17.70
2018-05-07T22:32:16.742Z,17.60
2018-05-07T22:37:21.363Z,17.50
2018-05-07T22:42:24.835Z,17.40
2018-05-07T22:47:27.966Z,17.30
2018-05-07T22:52:31.831Z,17.20
2018-05-07T22:57:36.067Z,17.30
2018-05-07T23:07:44.128Z,17.20
2018-05-07T23:12:48.043Z,17.30
2018-05-07T23:17:51.851Z,17.10
2018-05-07T23:22:54.942Z,17.00
2018-05-07T23:27:59.009Z,16.90
2018-05-07T23:33:02.908Z,16.70
2018-05-07T23:38:07.135Z,16.60
2018-05-07T23:43:11.060Z,16.40
2018-05-07T23:48:14.170Z,16.30
2018-05-07T23:53:18.032Z,15.90
2018-05-07T23:58:22.642Z,15.70
